Lumberton, Mississippi
Current Conditions -  °F | °C
As of 3:53 PM on Wednesday 17 Dec 2014 (Local Time) from KHBG Reporting Station
Clear Clear  
Wind Chill: 59°   Ceiling: Unl
Heat Index: 59°   Visibility: 10mi
Dew Point: 40°   Wind: 3mph
Humidity: 49%   Direction: 30°NNE
Pressure: 30.2"   Gusts: NA
Location:  31°N, 89.45°W
Report Text: KHBG 172153Z AUTO 03003KT 10SM CLR 15/04 A3020 RMK AO2 SLP228 T01500044
Loading
Personal Weather Stations






























Interactive Weather Map New forecast layout! Learn more

10-Day Weather Forecast

Advertisements
Track Severe Weather on mobile